createdAt,value
2023-03-31T00:01:01.158Z,11.60
2023-03-31T00:03:28.479Z,11.51
2023-03-31T00:06:01.174Z,11.53
2023-03-31T00:08:35.350Z,11.49
2023-03-31T00:11:07.999Z,11.43
2023-03-31T00:13:36.973Z,11.35
2023-03-31T00:16:09.367Z,11.32
2023-03-31T00:18:37.729Z,11.24
2023-03-31T00:21:24.513Z,11.21
2023-03-31T00:24:07.830Z,11.24
2023-03-31T00:26:36.425Z,11.26
2023-03-31T00:29:07.092Z,11.21
2023-03-31T00:31:36.044Z,11.27
2023-03-31T00:34:03.410Z,11.30
2023-03-31T00:36:31.097Z,11.28
2023-03-31T00:39:02.584Z,11.27
2023-03-31T00:41:30.760Z,11.22
2023-03-31T00:44:29.357Z,11.28
2023-03-31T00:47:16.558Z,11.31
2023-03-31T00:49:56.947Z,11.18
2023-03-31T00:52:32.122Z,11.20
2023-03-31T00:55:17.395Z,11.27
2023-03-31T00:57:48.112Z,11.16
2023-03-31T01:00:16.463Z,11.14
2023-03-31T01:02:55.793Z,11.09
2023-03-31T01:05:43.642Z,11.07
2023-03-31T01:08:12.199Z,11.07
2023-03-31T01:10:50.490Z,11.04
2023-03-31T01:13:18.964Z,10.99
2023-03-31T01:15:46.294Z,10.96
2023-03-31T01:18:16.548Z,10.92
2023-03-31T01:21:37.521Z,10.97
2023-03-31T01:25:01.440Z,11.00
2023-03-31T01:28:33.163Z,11.01
2023-03-31T01:31:21.482Z,10.97
2023-03-31T01:34:15.596Z,10.96
2023-03-31T01:37:42.755Z,10.95
2023-03-31T01:40:49.342Z,10.94
2023-03-31T01:44:07.703Z,10.95
2023-03-31T01:46:58.621Z,10.93
2023-03-31T01:49:51.394Z,10.98
2023-03-31T01:52:48.708Z,10.92
2023-03-31T01:55:30.956Z,10.93
2023-03-31T01:58:09.561Z,10.92
2023-03-31T02:00:51.839Z,10.94
2023-03-31T02:03:33.016Z,10.92
2023-03-31T02:06:19.992Z,10.95
2023-03-31T02:08:53.743Z,10.94
2023-03-31T02:11:22.283Z,10.94
2023-03-31T02:13:53.829Z,10.94
2023-03-31T02:16:26.736Z,10.97
2023-03-31T02:19:02.253Z,10.93
2023-03-31T02:21:34.784Z,10.91
2023-03-31T02:24:12.756Z,10.94
2023-03-31T02:26:53.670Z,10.92
2023-03-31T02:29:21.875Z,10.94
2023-03-31T02:32:13.528Z,10.92
2023-03-31T02:34:41.379Z,10.90
2023-03-31T02:37:08.638Z,10.90
2023-03-31T02:39:39.669Z,10.93
2023-03-31T02:42:07.600Z,10.99
2023-03-31T02:44:39.944Z,10.95
2023-03-31T02:47:13.491Z,10.95
2023-03-31T02:49:50.448Z,10.95
2023-03-31T02:53:06.489Z,11.13
2023-03-31T02:56:17.022Z,10.99
2023-03-31T02:59:35.346Z,10.93
2023-03-31T03:02:34.222Z,10.92
2023-03-31T03:05:26.033Z,10.94
2023-03-31T03:08:38.223Z,10.90
2023-03-31T03:11:26.002Z,10.91
2023-03-31T03:14:13.091Z,10.88
2023-03-31T03:16:51.608Z,10.92
2023-03-31T03:19:23.741Z,10.91
2023-03-31T03:21:51.221Z,10.92
2023-03-31T03:24:18.885Z,10.92
2023-03-31T03:26:46.559Z,10.94
2023-03-31T03:29:14.630Z,10.94
2023-03-31T03:31:42.982Z,10.92
2023-03-31T03:34:10.269Z,10.94
2023-03-31T03:36:39.018Z,10.95
2023-03-31T03:39:08.119Z,10.93
2023-03-31T03:41:36.279Z,10.95
2023-03-31T03:44:03.627Z,10.96
2023-03-31T03:46:30.869Z,10.97
2023-03-31T03:48:58.034Z,10.94
2023-03-31T03:51:25.604Z,10.95
2023-03-31T03:53:52.805Z,10.94
2023-03-31T03:56:19.912Z,10.94
2023-03-31T03:58:47.071Z,10.92
2023-03-31T04:01:16.243Z,10.88
2023-03-31T04:03:43.861Z,10.87
2023-03-31T04:06:11.471Z,10.84
2023-03-31T04:08:38.663Z,10.87
2023-03-31T04:11:19.176Z,10.88
2023-03-31T04:13:47.491Z,10.88
2023-03-31T04:16:15.096Z,10.89
2023-03-31T04:18:45.362Z,10.86
2023-03-31T04:21:22.949Z,10.84
2023-03-31T04:24:01.791Z,10.82
2023-03-31T04:26:43.666Z,10.83
2023-03-31T04:29:20.528Z,10.84
2023-03-31T04:31:47.794Z,10.85
2023-03-31T04:34:15.910Z,10.84
2023-03-31T04:36:47.919Z,10.85
2023-03-31T04:39:26.997Z,10.89
2023-03-31T04:41:54.770Z,10.88
2023-03-31T04:44:22.036Z,10.79
2023-03-31T04:46:50.315Z,10.78
2023-03-31T04:49:18.019Z,10.76
2023-03-31T04:51:45.175Z,10.84
2023-03-31T04:54:12.796Z,10.82
2023-03-31T04:56:40.047Z,10.82
2023-03-31T04:59:08.444Z,10.81
2023-03-31T05:01:36.608Z,10.85
2023-03-31T05:04:05.605Z,10.89
2023-03-31T05:06:33.468Z,10.88
2023-03-31T05:09:00.794Z,10.89
2023-03-31T05:11:28.937Z,10.89
2023-03-31T05:13:57.309Z,10.92
2023-03-31T05:16:24.629Z,10.91
2023-03-31T05:18:52.179Z,11.03
2023-03-31T05:21:21.466Z,11.14
2023-03-31T05:23:49.505Z,11.20
2023-03-31T05:26:16.997Z,11.11
2023-03-31T05:28:44.467Z,11.05
2023-03-31T05:31:13.145Z,11.08
2023-03-31T05:33:41.828Z,11.20
2023-03-31T05:36:16.502Z,11.16
2023-03-31T05:38:44.350Z,11.07
2023-03-31T05:41:11.938Z,11.06
2023-03-31T05:43:39.729Z,11.09
2023-03-31T05:46:07.822Z,11.09
2023-03-31T05:48:37.843Z,11.10
2023-03-31T05:51:06.022Z,10.96
2023-03-31T05:53:34.102Z,10.90
2023-03-31T05:56:06.864Z,10.94
2023-03-31T05:58:36.726Z,11.04
2023-03-31T06:01:11.731Z,10.89
2023-03-31T06:03:41.863Z,10.71
2023-03-31T06:06:10.479Z,10.70
2023-03-31T06:08:37.865Z,10.66
2023-03-31T06:11:12.058Z,10.68
2023-03-31T06:13:41.399Z,10.70
2023-03-31T06:16:11.349Z,10.76
2023-03-31T06:18:39.627Z,10.84
2023-03-31T06:21:08.237Z,10.78
2023-03-31T06:23:35.606Z,10.79
2023-03-31T06:26:08.128Z,10.85
2023-03-31T06:28:36.654Z,10.88
2023-03-31T06:31:25.056Z,10.89
2023-03-31T06:33:53.554Z,10.91
2023-03-31T06:36:22.567Z,10.97
2023-03-31T06:38:51.302Z,11.02
2023-03-31T06:41:21.099Z,11.02
2023-03-31T06:43:48.653Z,10.99
2023-03-31T06:46:16.529Z,10.99
2023-03-31T06:48:44.029Z,10.98
2023-03-31T06:51:11.877Z,10.98
2023-03-31T06:53:39.210Z,11.02
2023-03-31T06:56:07.557Z,11.05
2023-03-31T06:58:35.477Z,11.10
2023-03-31T07:01:05.943Z,11.10
2023-03-31T07:03:34.266Z,11.15
2023-03-31T07:06:01.533Z,11.17
2023-03-31T07:08:29.097Z,11.12
2023-03-31T07:11:00.689Z,11.09
2023-03-31T07:13:28.902Z,11.09
2023-03-31T07:15:57.003Z,11.14
2023-03-31T07:18:34.239Z,11.19
2023-03-31T07:21:05.097Z,10.95
2023-03-31T07:23:35.642Z,11.21
2023-03-31T07:26:02.913Z,11.28
2023-03-31T07:28:31.107Z,11.37
2023-03-31T07:30:58.578Z,11.23
2023-03-31T07:33:25.832Z,11.18
2023-03-31T07:36:07.811Z,11.16
2023-03-31T07:38:37.640Z,11.15
2023-03-31T07:41:08.879Z,11.33
2023-03-31T07:43:37.696Z,11.31
2023-03-31T07:46:05.966Z,11.46
2023-03-31T07:48:34.420Z,11.77
2023-03-31T07:51:01.769Z,12.09
2023-03-31T07:53:33.986Z,12.09
2023-03-31T07:56:01.425Z,11.91
2023-03-31T07:58:29.143Z,11.87
2023-03-31T08:00:56.580Z,12.15
2023-03-31T08:03:23.724Z,12.23
2023-03-31T08:05:54.906Z,12.34
2023-03-31T08:08:22.268Z,12.11
2023-03-31T08:10:49.925Z,12.02
2023-03-31T08:13:17.311Z,12.19
2023-03-31T08:15:44.501Z,12.29
2023-03-31T08:18:11.718Z,12.56
2023-03-31T08:20:39.335Z,12.81
2023-03-31T08:23:09.175Z,13.03
2023-03-31T08:25:36.554Z,13.11
2023-03-31T08:28:03.866Z,13.11
2023-03-31T08:30:31.385Z,12.73
2023-03-31T08:32:58.584Z,13.22
2023-03-31T08:35:25.758Z,12.99
2023-03-31T08:37:52.969Z,13.09
2023-03-31T08:40:26.044Z,13.36
2023-03-31T08:43:13.544Z,12.97
2023-03-31T08:45:46.942Z,13.11
2023-03-31T08:48:45.028Z,12.87
2023-03-31T08:51:22.770Z,12.82
2023-03-31T08:54:13.083Z,12.47
2023-03-31T08:56:48.107Z,12.81
2023-03-31T08:59:32.152Z,13.33
2023-03-31T09:02:30.566Z,13.17
2023-03-31T09:05:43.403Z,14.18
2023-03-31T09:08:36.511Z,13.80
2023-03-31T09:11:51.119Z,14.27
2023-03-31T09:14:51.672Z,13.98
2023-03-31T09:17:48.128Z,14.52
2023-03-31T09:20:41.120Z,14.17
2023-03-31T09:23:36.400Z,14.10
2023-03-31T09:26:05.249Z,14.69
2023-03-31T09:28:39.533Z,14.91
2023-03-31T09:31:20.880Z,14.61
2023-03-31T09:33:51.639Z,13.90
2023-03-31T09:36:24.426Z,13.84
2023-03-31T09:38:52.260Z,14.70
2023-03-31T09:41:20.568Z,14.89
2023-03-31T09:43:49.429Z,15.10
2023-03-31T09:46:22.984Z,14.44
2023-03-31T09:49:30.959Z,14.72
2023-03-31T09:52:32.176Z,14.27
2023-03-31T09:55:40.205Z,14.38
2023-03-31T09:58:14.596Z,14.67
2023-03-31T10:01:06.402Z,15.40
2023-03-31T10:03:37.302Z,15.86
2023-03-31T10:06:14.871Z,15.54
2023-03-31T10:09:01.809Z,15.31
2023-03-31T10:11:29.628Z,13.75
2023-03-31T10:14:14.460Z,13.90
2023-03-31T10:16:55.687Z,14.16
2023-03-31T10:19:30.327Z,14.15
2023-03-31T10:22:28.383Z,14.37
2023-03-31T10:25:22.239Z,14.90
2023-03-31T10:27:55.405Z,15.17
2023-03-31T10:30:26.559Z,15.94
2023-03-31T10:32:54.900Z,14.45
2023-03-31T10:35:30.666Z,15.02
2023-03-31T10:38:06.172Z,14.62
2023-03-31T10:40:35.654Z,15.88
2023-03-31T10:43:24.699Z,16.66
2023-03-31T10:46:00.501Z,14.04
2023-03-31T10:48:41.008Z,14.54
2023-03-31T10:51:22.249Z,15.05
2023-03-31T10:53:53.697Z,14.92
2023-03-31T10:56:48.648Z,15.04
2023-03-31T11:00:05.607Z,14.97
2023-03-31T11:03:36.887Z,14.69
2023-03-31T11:06:43.914Z,14.46
2023-03-31T11:09:52.186Z,14.55
2023-03-31T11:12:44.605Z,14.26
2023-03-31T11:16:07.681Z,14.28
2023-03-31T11:19:20.768Z,14.05
2023-03-31T11:22:38.215Z,13.97
2023-03-31T11:26:06.513Z,13.62
2023-03-31T11:28:46.434Z,13.45
2023-03-31T11:31:49.993Z,13.62
2023-03-31T11:34:50.245Z,13.65
2023-03-31T11:38:18.430Z,13.57
2023-03-31T11:41:21.656Z,13.39
2023-03-31T11:44:03.804Z,13.32
2023-03-31T11:46:50.920Z,13.30
2023-03-31T11:49:28.313Z,13.19
2023-03-31T11:52:18.229Z,13.26
2023-03-31T11:55:27.431Z,13.55
2023-03-31T11:57:57.258Z,13.71
2023-03-31T12:00:56.594Z,14.04
2023-03-31T12:03:45.141Z,13.88
2023-03-31T12:06:36.682Z,13.65
2023-03-31T12:10:07.751Z,13.43
2023-03-31T12:12:51.730Z,13.68
2023-03-31T12:15:38.382Z,14.00
2023-03-31T12:18:25.021Z,14.05
2023-03-31T12:20:57.677Z,14.79
2023-03-31T12:23:35.993Z,15.30
2023-03-31T12:26:33.310Z,15.29
2023-03-31T12:29:16.390Z,15.20
2023-03-31T12:31:46.250Z,14.87
2023-03-31T12:34:19.416Z,14.04
2023-03-31T12:37:17.544Z,13.69
2023-03-31T12:40:41.084Z,13.88
2023-03-31T12:43:54.639Z,14.10
2023-03-31T12:46:43.559Z,14.05
2023-03-31T12:49:51.519Z,13.81
2023-03-31T12:52:51.341Z,13.59
2023-03-31T12:55:37.791Z,13.77
2023-03-31T12:58:26.715Z,13.88
2023-03-31T13:01:16.046Z,14.02
2023-03-31T13:04:06.394Z,14.09
2023-03-31T13:06:33.607Z,14.33
2023-03-31T13:09:08.528Z,14.12
2023-03-31T13:11:36.083Z,14.13
2023-03-31T13:14:37.391Z,13.98
2023-03-31T13:17:33.500Z,14.00
2023-03-31T13:20:38.639Z,13.87
2023-03-31T13:23:28.692Z,13.86
2023-03-31T13:25:58.327Z,13.80
2023-03-31T13:28:43.060Z,13.80
2023-03-31T13:31:14.497Z,13.99
2023-03-31T13:33:58.132Z,14.00
2023-03-31T13:36:34.344Z,13.82
2023-03-31T13:39:45.225Z,14.04
2023-03-31T13:43:02.959Z,14.18
2023-03-31T13:45:54.114Z,14.30
2023-03-31T13:48:48.422Z,14.38
2023-03-31T13:51:59.667Z,14.37
2023-03-31T13:55:19.296Z,14.17
2023-03-31T13:58:37.660Z,14.25
2023-03-31T14:02:12.436Z,14.44
2023-03-31T14:05:35.765Z,14.64
2023-03-31T14:08:31.692Z,14.94
2023-03-31T14:11:28.408Z,14.79
2023-03-31T14:14:15.538Z,14.72
2023-03-31T14:16:59.610Z,14.60
2023-03-31T14:19:44.846Z,14.42
2023-03-31T14:23:06.432Z,14.21
2023-03-31T14:25:59.725Z,14.03
2023-03-31T14:29:14.040Z,13.96
2023-03-31T14:32:24.071Z,13.97
2023-03-31T14:35:26.583Z,14.15
2023-03-31T14:37:56.291Z,14.32
2023-03-31T14:40:24.671Z,15.14
2023-03-31T14:42:52.473Z,16.19
2023-03-31T14:45:31.376Z,16.87
2023-03-31T14:48:14.808Z,16.74
2023-03-31T14:50:47.052Z,16.55
2023-03-31T14:53:23.969Z,15.63
2023-03-31T14:55:59.968Z,15.36
2023-03-31T14:58:37.229Z,14.88
2023-03-31T15:01:07.947Z,14.78
2023-03-31T15:03:41.662Z,14.62
2023-03-31T15:06:11.324Z,14.54
2023-03-31T15:08:38.737Z,14.39
2023-03-31T15:11:19.552Z,14.38
2023-03-31T15:14:04.453Z,14.41
2023-03-31T15:16:45.533Z,14.71
2023-03-31T15:19:33.243Z,14.67
2023-03-31T15:22:16.358Z,14.99
2023-03-31T15:24:43.624Z,16.84
2023-03-31T15:27:36.901Z,18.51
2023-03-31T15:30:15.432Z,16.97
2023-03-31T15:32:42.929Z,16.28
2023-03-31T15:35:35.660Z,15.44
2023-03-31T15:38:06.392Z,15.24
2023-03-31T15:40:43.814Z,15.06
2023-03-31T15:43:50.841Z,14.63
2023-03-31T15:46:51.268Z,14.47
2023-03-31T15:49:26.300Z,14.21
2023-03-31T15:51:57.173Z,13.89
2023-03-31T15:54:40.873Z,14.01
2023-03-31T15:57:16.117Z,13.95
2023-03-31T15:59:56.436Z,13.85
2023-03-31T16:02:47.161Z,13.79
2023-03-31T16:08:45.873Z,13.46
2023-03-31T16:11:26.710Z,13.46
2023-03-31T16:13:59.937Z,13.57
2023-03-31T16:16:28.646Z,14.87
2023-03-31T16:19:10.355Z,14.33
2023-03-31T16:21:47.482Z,13.94
2023-03-31T16:24:15.746Z,13.82
2023-03-31T16:26:43.314Z,14.15
2023-03-31T16:29:19.790Z,14.87
2023-03-31T16:31:46.997Z,16.73
2023-03-31T16:34:14.522Z,17.45
2023-03-31T16:36:42.794Z,17.80
2023-03-31T16:39:10.013Z,17.94
2023-03-31T16:41:38.257Z,17.93
2023-03-31T16:44:06.325Z,17.34
2023-03-31T16:46:33.867Z,17.02
2023-03-31T16:49:01.375Z,16.54
2023-03-31T16:51:28.627Z,17.29
2023-03-31T16:53:58.453Z,17.41
2023-03-31T16:56:27.129Z,17.52
2023-03-31T16:58:55.012Z,17.41
2023-03-31T17:01:22.258Z,16.55
2023-03-31T17:03:49.596Z,15.56
2023-03-31T17:06:16.823Z,14.91
2023-03-31T17:08:44.034Z,14.36
2023-03-31T17:11:14.480Z,13.98
2023-03-31T17:13:44.592Z,13.78
2023-03-31T17:16:21.944Z,13.56
2023-03-31T17:18:54.463Z,13.36
2023-03-31T17:21:21.936Z,13.33
2023-03-31T17:23:49.707Z,13.17
2023-03-31T17:26:17.949Z,13.14
2023-03-31T17:28:45.399Z,13.03
2023-03-31T17:31:20.523Z,13.00
2023-03-31T17:33:48.578Z,12.91
2023-03-31T17:36:16.810Z,12.95
2023-03-31T17:38:44.831Z,12.93
2023-03-31T17:41:13.801Z,12.81
2023-03-31T17:43:46.174Z,12.75
2023-03-31T17:46:14.053Z,12.80
2023-03-31T17:48:43.031Z,12.69
2023-03-31T17:51:17.879Z,12.53
2023-03-31T17:53:47.027Z,12.45
2023-03-31T17:56:16.336Z,12.56
2023-03-31T17:58:43.944Z,12.48
2023-03-31T18:01:13.352Z,12.43
2023-03-31T18:03:41.178Z,12.41
2023-03-31T18:06:12.861Z,12.42
2023-03-31T18:08:42.036Z,12.40
2023-03-31T18:11:10.133Z,12.45
2023-03-31T18:13:37.736Z,12.47
2023-03-31T18:16:09.486Z,12.44
2023-03-31T18:18:39.294Z,12.33
2023-03-31T18:21:10.656Z,12.19
2023-03-31T18:23:38.733Z,12.21
2023-03-31T18:26:12.229Z,12.27
2023-03-31T18:28:42.988Z,12.24
2023-03-31T18:31:12.329Z,12.31
2023-03-31T18:33:41.525Z,12.35
2023-03-31T18:36:18.692Z,12.28
2023-03-31T18:38:49.129Z,12.35
2023-03-31T18:41:20.299Z,12.28
2023-03-31T18:43:47.791Z,12.16
2023-03-31T18:46:15.088Z,11.99
2023-03-31T18:48:44.995Z,11.68
2023-03-31T18:51:13.610Z,11.56
2023-03-31T18:53:40.804Z,11.51
2023-03-31T18:56:07.999Z,11.37
2023-03-31T18:58:35.532Z,11.28
2023-03-31T19:01:02.821Z,11.18
2023-03-31T19:03:30.100Z,11.19
2023-03-31T19:06:11.827Z,11.22
2023-03-31T19:08:40.508Z,11.16
2023-03-31T19:11:17.676Z,11.06
2023-03-31T19:13:45.034Z,10.99
2023-03-31T19:16:13.584Z,11.01
2023-03-31T19:18:41.102Z,10.97
2023-03-31T19:21:08.274Z,10.99
2023-03-31T19:23:35.559Z,11.00
2023-03-31T19:26:03.101Z,11.06
2023-03-31T19:28:31.445Z,11.03
2023-03-31T19:30:59.556Z,10.95
2023-03-31T19:33:27.578Z,10.86
2023-03-31T19:35:55.004Z,10.86
2023-03-31T19:38:22.426Z,10.86
2023-03-31T19:40:49.973Z,10.79
2023-03-31T19:43:24.583Z,10.73
2023-03-31T19:45:54.043Z,10.67
2023-03-31T19:48:21.374Z,10.67
2023-03-31T19:50:59.612Z,10.61
2023-03-31T19:53:27.390Z,10.58
2023-03-31T19:56:01.518Z,10.54
2023-03-31T19:58:30.714Z,10.42
2023-03-31T20:00:58.344Z,10.31
2023-03-31T20:03:28.027Z,10.27
2023-03-31T20:06:09.434Z,10.24
2023-03-31T20:08:38.065Z,10.24
2023-03-31T20:11:12.093Z,10.37
2023-03-31T20:13:42.122Z,10.39
2023-03-31T20:16:15.374Z,10.31
2023-03-31T20:18:47.827Z,10.21
2023-03-31T20:21:19.425Z,10.33
2023-03-31T20:23:47.887Z,10.39
2023-03-31T20:26:18.623Z,10.26
2023-03-31T20:28:46.732Z,10.20
2023-03-31T20:31:25.370Z,10.22
2023-03-31T20:33:54.454Z,10.30
2023-03-31T20:36:31.967Z,10.13
2023-03-31T20:39:03.392Z,10.19
2023-03-31T20:41:31.842Z,10.14
2023-03-31T20:44:00.657Z,10.09
2023-03-31T20:46:28.440Z,10.07
2023-03-31T20:48:58.055Z,9.97
2023-03-31T20:51:32.310Z,9.93
2023-03-31T20:54:01.738Z,9.82
2023-03-31T20:56:35.036Z,9.67
2023-03-31T20:59:02.479Z,9.66
2023-03-31T21:01:33.571Z,9.58
2023-03-31T21:04:02.822Z,9.50
2023-03-31T21:06:37.865Z,9.44
2023-03-31T21:09:05.620Z,9.47
2023-03-31T21:11:33.277Z,9.57
2023-03-31T21:14:01.616Z,9.72
2023-03-31T21:16:29.889Z,9.78
2023-03-31T21:18:59.687Z,9.78
2023-03-31T21:21:27.792Z,9.84
2023-03-31T21:23:55.587Z,9.73
2023-03-31T21:26:24.876Z,9.55
2023-03-31T21:28:56.298Z,9.42
2023-03-31T21:31:26.061Z,9.39
2023-03-31T21:33:56.651Z,9.21
2023-03-31T21:36:25.124Z,9.02
2023-03-31T21:38:57.374Z,8.99
2023-03-31T21:41:31.084Z,8.93
2023-03-31T21:44:02.330Z,8.77
2023-03-31T21:46:32.666Z,8.65
2023-03-31T21:49:00.279Z,8.56
2023-03-31T21:51:28.485Z,8.55
2023-03-31T21:53:56.002Z,8.53
2023-03-31T21:56:25.358Z,8.54
2023-03-31T21:58:52.639Z,8.53
2023-03-31T22:01:21.520Z,8.42
2023-03-31T22:03:50.258Z,8.42
2023-03-31T22:06:17.658Z,8.48
2023-03-31T22:08:45.506Z,8.46
2023-03-31T22:11:13.679Z,8.46
2023-03-31T22:13:41.288Z,8.51
2023-03-31T22:16:24.088Z,8.58
2023-03-31T22:18:52.641Z,8.66
2023-03-31T22:21:25.941Z,8.65
2023-03-31T22:23:58.054Z,8.62
2023-03-31T22:26:29.210Z,8.57
2023-03-31T22:28:57.263Z,8.62
2023-03-31T22:31:26.247Z,8.70
2023-03-31T22:33:53.560Z,8.92
2023-03-31T22:36:21.347Z,8.91
2023-03-31T22:38:48.677Z,8.78
2023-03-31T22:41:16.186Z,8.66
2023-03-31T22:43:45.894Z,8.56
2023-03-31T22:46:14.068Z,8.39
2023-03-31T22:48:41.358Z,8.28
2023-03-31T22:51:11.750Z,8.21
2023-03-31T22:53:38.876Z,8.15
2023-03-31T22:56:11.854Z,8.13
2023-03-31T22:58:39.388Z,8.07
2023-03-31T23:01:09.686Z,8.08
2023-03-31T23:03:37.319Z,8.04
2023-03-31T23:06:06.100Z,8.01
2023-03-31T23:08:35.942Z,8.02
2023-03-31T23:11:06.475Z,8.03
2023-03-31T23:13:34.487Z,8.02
2023-03-31T23:16:17.675Z,7.94
2023-03-31T23:18:47.393Z,7.92
2023-03-31T23:21:22.462Z,7.92
2023-03-31T23:23:57.121Z,7.83
2023-03-31T23:26:26.238Z,7.80
2023-03-31T23:28:54.063Z,7.76
2023-03-31T23:31:33.384Z,7.66
2023-03-31T23:34:01.414Z,7.61
2023-03-31T23:36:28.753Z,7.58
2023-03-31T23:38:57.187Z,7.65
2023-03-31T23:41:26.192Z,7.73
2023-03-31T23:43:54.531Z,7.67
2023-03-31T23:46:21.874Z,7.66
2023-03-31T23:48:49.155Z,7.57
2023-03-31T23:51:16.332Z,7.48
2023-03-31T23:53:43.601Z,7.46
2023-03-31T23:56:13.130Z,7.53
2023-03-31T23:58:42.840Z,7.53
